Time;durP1;ratioP1;P1;durP2;ratioP2;P2;SDS_P1;SDS_P2;PMS_P1;PMS_P2;Temp;Humidity;BMP_temperature;BMP_pressure;BME280_temperature;BME280_humidity;BME280_pressure;Samples;Min_cycle;Max_cycle;Signal;HPM_P1;HPM_P2
2023/09/19 00:00:43;;;;;;;;;1.00;1.00;;;;;21.93;100.00;100641.81;6152592;23;45367;-77
2023/09/19 00:03:10;;;;;;;;;1.00;1.00;;;;;21.91;100.00;100638.28;6152561;23;45339;-78
2023/09/19 00:05:36;;;;;;;;;2.00;2.00;;;;;21.93;100.00;100632.81;6153079;23;46336;-78
2023/09/19 00:08:04;;;;;;;;;1.00;1.00;;;;;21.96;100.00;100635.44;6126583;23;46251;-78
2023/09/19 00:10:30;;;;;;;;;0.00;0.00;;;;;21.86;100.00;100642.13;6151695;23;45430;-78
2023/09/19 00:12:59;;;;;;;;;0.50;0.50;;;;;21.96;100.00;100644.44;6150143;22;45420;-78
2023/09/19 00:15:28;;;;;;;;;1.50;1.50;;;;;21.94;100.00;100642.72;6151758;23;45395;-77
2023/09/19 00:17:55;;;;;;;;;5.00;0.50;;;;;21.85;100.00;100645.75;6152076;23;45288;-78
2023/09/19 00:20:29;;;;;;;;;1.25;1.25;;;;;22.18;100.00;100646.41;6149877;23;45419;-78
2023/09/19 00:22:54;;;;;;;;;1.50;1.50;;;;;21.70;100.00;100650.75;6150106;23;45426;-77
2023/09/19 00:25:20;;;;;;;;;1.75;1.75;;;;;21.77;100.00;100648.69;6122456;22;54281;-77
2023/09/19 00:27:49;;;;;;;;;2.00;1.00;;;;;21.66;100.00;100651.78;6150554;23;45392;-77
2023/09/19 00:30:21;;;;;;;;;1.00;1.00;;;;;21.57;100.00;100663.81;6151867;23;45280;-77
2023/09/19 00:32:48;;;;;;;;;3.00;1.00;;;;;21.72;100.00;100662.41;6124682;23;45331;-77
2023/09/19 00:35:15;;;;;;;;;3.00;2.00;;;;;21.61;100.00;100664.56;6151013;23;45402;-77
2023/09/19 00:37:41;;;;;;;;;1.00;1.00;;;;;21.56;100.00;100662.00;6124650;22;45443;-76
2023/09/19 00:40:11;;;;;;;;;1.00;1.00;;;;;21.75;100.00;100659.59;6150816;22;44762;-77
2023/09/19 00:42:38;;;;;;;;;1.00;1.00;;;;;21.59;100.00;100661.03;6152111;23;44839;-77
2023/09/19 00:45:06;;;;;;;;;2.00;1.00;;;;;21.65;100.00;100663.53;6153120;23;45589;-76
2023/09/19 00:47:31;;;;;;;;;1.00;1.00;;;;;21.44;100.00;100666.94;6154039;23;45288;-76
2023/09/19 00:49:57;;;;;;;;;1.00;0.00;;;;;21.49;100.00;100660.47;6126023;23;45342;-76
2023/09/19 00:52:23;;;;;;;;;0.50;0.50;;;;;21.44;100.00;100658.84;6103338;22;45490;-77
2023/09/19 00:54:49;;;;;;;;;1.75;1.75;;;;;21.47;100.00;100666.84;6155212;23;45403;-77
2023/09/19 00:57:19;;;;;;;;;0.75;0.75;;;;;21.41;100.00;100659.78;6152574;23;45481;-77
2023/09/19 00:59:48;;;;;;;;;2.00;2.00;;;;;21.43;100.00;100667.88;6126847;23;45351;-76
2023/09/19 01:02:15;;;;;;;;;1.00;1.00;;;;;21.43;100.00;100660.66;6154350;23;45381;-77
2023/09/19 01:04:42;;;;;;;;;1.00;1.00;;;;;21.47;100.00;100661.44;6127388;22;46908;-77
2023/09/19 01:07:08;;;;;;;;;2.00;2.00;;;;;21.27;100.00;100659.31;6153935;23;45405;-77
2023/09/19 01:09:35;;;;;;;;;1.00;1.00;;;;;21.48;100.00;100672.22;6151762;23;45325;-77
2023/09/19 01:12:08;;;;;;;;;1.00;1.00;;;;;21.48;100.00;100669.50;6124484;22;45289;-77
2023/09/19 01:14:58;;;;;;;;;0.00;0.00;;;;;21.67;100.00;100669.81;6256781;22;45412;-77
2023/09/19 01:17:23;;;;;;;;;0.50;0.50;;;;;21.25;100.00;100662.09;6126609;23;44870;-77
2023/09/19 01:20:08;;;;;;;;;2.25;1.75;;;;;21.71;100.00;100670.56;6152821;23;45367;-77
2023/09/19 01:22:33;;;;;;;;;1.00;0.50;;;;;21.18;100.00;100666.78;6126996;23;44760;-77
2023/09/19 01:25:30;;;;;;;;;4.33;3.00;;;;;21.53;100.00;100662.13;6150254;22;46849;-76
2023/09/19 01:28:27;;;;;;;;;0.25;0.25;;;;;21.52;100.00;100659.47;6145814;22;45385;-76
2023/09/19 01:30:58;;;;;;;;;2.25;1.00;;;;;21.32;100.00;100654.66;6128494;22;44764;-76
2023/09/19 01:33:34;;;;;;;;;1.75;1.75;;;;;21.07;100.00;100657.25;6153898;23;44756;-76
2023/09/19 01:35:59;;;;;;;;;2.50;2.00;;;;;21.06;100.00;100672.56;6154508;23;45970;-77
2023/09/19 01:38:28;;;;;;;;;1.00;1.00;;;;;21.10;100.00;100663.44;6259311;22;44744;-77
2023/09/19 01:41:10;;;;;;;;;0.75;0.75;;;;;21.40;100.00;100665.25;6128115;22;45830;-77
2023/09/19 01:43:42;;;;;;;;;1.00;1.00;;;;;21.33;100.00;100675.34;6154777;23;45315;-76
2023/09/19 01:46:37;;;;;;;;;3.75;2.00;;;;;21.38;100.00;100673.41;6127259;23;46948;-77
2023/09/19 01:49:46;;;;;;;;;2.25;1.25;;;;;21.40;100.00;100673.38;6153505;23;45323;-77
2023/09/19 01:52:20;;;;;;;;;1.00;1.00;;;;;20.94;100.00;100667.53;6152765;23;45385;-76
2023/09/19 01:54:52;;;;;;;;;1.50;1.50;;;;;21.27;100.00;100675.56;6126796;22;45292;-77
2023/09/19 01:57:28;;;;;;;;;2.25;1.25;;;;;21.16;100.00;100675.88;6127000;23;46795;-77
2023/09/19 02:00:11;;;;;;;;;2.50;0.75;;;;;21.21;100.00;100681.16;6130089;23;45751;-77
2023/09/19 02:02:44;;;;;;;;;1.00;1.00;;;;;21.14;100.00;100684.03;6153845;23;45293;-77
2023/09/19 02:05:10;;;;;;;;;1.50;1.50;;;;;20.85;100.00;100684.94;6152303;23;45451;-78
2023/09/19 02:10:57;;;;;;;;;1.00;1.00;;;;;20.84;100.00;100687.69;6153373;22;45565;-77
2023/09/19 02:13:26;;;;;;;;;1.00;1.00;;;;;20.88;100.00;100682.13;6153292;23;45312;-77
2023/09/19 02:15:52;;;;;;;;;1.75;1.50;;;;;20.88;100.00;100690.22;6154488;23;44789;-76
2023/09/19 02:18:18;;;;;;;;;1.00;1.00;;;;;20.88;100.00;100690.22;6153699;23;45123;-77
2023/09/19 02:20:43;;;;;;;;;0.00;0.00;;;;;20.87;100.00;100693.88;6257926;22;45881;-77
2023/09/19 02:23:10;;;;;;;;;3.00;1.25;;;;;21.01;100.00;100687.19;6154804;23;45544;-77
2023/09/19 02:25:36;;;;;;;;;1.33;1.00;;;;;20.91;100.00;100681.16;6128054;23;45281;-77
2023/09/19 02:28:02;;;;;;;;;3.00;1.75;;;;;20.97;100.00;100684.56;6149626;22;45367;-77
2023/09/19 02:30:28;;;;;;;;;2.00;2.00;;;;;20.91;100.00;100683.88;6123476;23;44789;-77
2023/09/19 02:32:54;;;;;;;;;2.00;2.00;;;;;20.89;100.00;100685.75;6253870;22;45359;-77
2023/09/19 02:35:19;;;;;;;;;2.75;2.75;;;;;20.95;100.00;100686.44;6123288;22;45400;-78
2023/09/19 02:37:48;;;;;;;;;2.25;2.25;;;;;21.33;100.00;100684.38;6123079;23;46694;-77
2023/09/19 02:40:21;;;;;;;;;1.25;1.25;;;;;21.10;100.00;100676.09;6122462;22;45486;-77
2023/09/19 02:42:53;;;;;;;;;2.00;0.75;;;;;21.41;100.00;100683.22;6153114;23;44733;-77
2023/09/19 02:45:19;;;;;;;;;1.00;1.00;;;;;21.17;100.00;100683.97;6154365;23;45420;-77
2023/09/19 02:47:48;;;;;;;;;2.00;1.75;;;;;21.27;100.00;100683.66;6153673;23;44987;-78
2023/09/19 02:50:17;;;;;;;;;2.00;1.00;;;;;21.21;100.00;100681.16;6152925;23;45631;-77
2023/09/19 02:52:44;;;;;;;;;1.00;0.00;;;;;21.15;100.00;100684.97;6126837;22;44792;-78
2023/09/19 02:55:12;;;;;;;;;2.25;1.25;;;;;21.11;100.00;100677.88;6126810;22;45240;-78
2023/09/19 02:57:40;;;;;;;;;3.00;2.00;;;;;21.04;100.00;100678.97;6150302;23;46750;-76
2023/09/19 03:00:10;;;;;;;;;3.00;1.50;;;;;21.17;100.00;100680.38;6126637;22;45366;-78
2023/09/19 03:02:35;;;;;;;;;2.00;2.00;;;;;21.01;100.00;100681.78;6154697;23;45327;-77
2023/09/19 03:05:02;;;;;;;;;1.00;1.00;;;;;21.04;100.00;100670.88;6127796;22;45686;-78
2023/09/19 03:07:29;;;;;;;;;1.50;1.50;;;;;21.31;100.00;100682.63;6127368;23;47217;-77
2023/09/19 03:09:58;;;;;;;;;1.25;1.25;;;;;21.33;100.00;100678.06;6153442;23;45383;-77
2023/09/19 03:12:26;;;;;;;;;2.75;2.75;;;;;21.38;100.00;100679.69;6154571;23;45395;-77
2023/09/19 03:14:52;;;;;;;;;1.50;1.25;;;;;21.04;100.00;100679.84;6127667;22;44813;-78
2023/09/19 03:17:19;;;;;;;;;1.00;1.00;;;;;20.97;100.00;100683.69;6127708;23;47506;-78
2023/09/19 03:19:45;;;;;;;;;4.00;2.25;;;;;20.91;100.00;100678.47;6127776;23;45331;-77
2023/09/19 03:22:10;;;;;;;;;1.25;1.25;;;;;20.82;100.00;100682.31;6154390;23;45386;-78
2023/09/19 03:24:37;;;;;;;;;2.00;2.00;;;;;20.84;100.00;100685.84;6154614;23;44756;-78
2023/09/19 03:27:03;;;;;;;;;3.00;2.00;;;;;20.83;100.00;100689.50;6127476;22;46648;-78
2023/09/19 03:29:31;;;;;;;;;2.00;2.00;;;;;21.09;100.00;100683.31;6154477;23;45296;-78
2023/09/19 03:31:56;;;;;;;;;0.75;0.75;;;;;20.79;100.00;100682.41;6127665;22;45385;-78
2023/09/19 03:34:23;;;;;;;;;2.00;1.50;;;;;21.09;100.00;100679.75;6155197;22;45197;-78
2023/09/19 03:36:48;;;;;;;;;4.00;3.00;;;;;20.80;100.00;100683.28;6154863;23;45264;-78
2023/09/19 03:39:15;;;;;;;;;1.25;1.00;;;;;20.81;100.00;100685.97;6126988;23;45509;-78
2023/09/19 03:41:41;;;;;;;;;3.00;2.00;;;;;20.81;100.00;100683.25;6151420;23;45315;-77
2023/09/19 03:44:07;;;;;;;;;1.00;1.00;;;;;20.79;100.00;100685.13;6153194;23;45360;-78
2023/09/19 03:46:35;;;;;;;;;2.00;0.00;;;;;20.88;100.00;100681.25;6154315;23;45024;-78
2023/09/19 03:49:03;;;;;;;;;2.25;2.00;;;;;21.10;100.00;100674.25;6127276;23;44761;-77
2023/09/19 03:51:28;;;;;;;;;4.00;4.00;;;;;20.83;100.00;100689.50;6153130;23;45300;-77
2023/09/19 03:53:53;;;;;;;;;1.00;1.00;;;;;20.82;100.00;100681.44;6151612;23;45351;-78
2023/09/19 03:56:25;;;;;;;;;2.00;1.00;;;;;21.20;100.00;100671.28;6153279;23;45103;-77
2023/09/19 03:58:51;;;;;;;;;3.00;1.25;;;;;20.90;100.00;100682.97;6119997;23;45284;-78
2023/09/19 04:01:19;;;;;;;;;0.25;0.25;;;;;20.90;100.00;100682.09;6252585;22;45289;-78
2023/09/19 04:03:47;;;;;;;;;2.50;1.00;;;;;20.83;100.00;100681.38;6121955;23;44775;-77
2023/09/19 04:06:14;;;;;;;;;1.00;1.00;;;;;20.94;100.00;100671.13;6121351;23;45449;-77
2023/09/19 04:08:40;;;;;;;;;0.50;0.50;;;;;20.79;100.00;100668.91;6124345;23;44661;-78
2023/09/19 04:11:05;;;;;;;;;1.50;1.50;;;;;20.76;100.00;100674.38;6124624;23;45303;-77
2023/09/19 04:13:31;;;;;;;;;2.25;1.25;;;;;20.78;100.00;100669.81;6124206;23;45435;-77
2023/09/19 04:15:56;;;;;;;;;2.75;2.00;;;;;20.78;100.00;100664.41;6123833;23;45337;-77
2023/09/19 04:18:23;;;;;;;;;1.00;1.00;;;;;20.72;100.00;100670.91;6124370;23;45351;-77
2023/09/19 04:20:52;;;;;;;;;3.00;3.00;;;;;20.93;100.00;100663.97;6122557;23;45206;-77
2023/09/19 04:23:21;;;;;;;;;1.00;1.00;;;;;20.56;100.00;100677.63;6125457;22;45404;-77
2023/09/19 04:25:46;;;;;;;;;1.00;1.00;;;;;20.52;100.00;100681.34;6125067;23;44949;-77
2023/09/19 04:28:11;;;;;;;;;3.00;2.00;;;;;20.51;100.00;100680.47;6123170;22;45327;-79
2023/09/19 04:30:40;;;;;;;;;5.00;2.00;;;;;20.52;100.00;100674.13;6123575;22;45331;-78
2023/09/19 04:36:29;;;;;;;;;2.00;2.00;;;;;20.69;100.00;100667.41;6124054;22;45675;-78
2023/09/19 04:38:55;;;;;;;;;1.50;1.50;;;;;20.48;100.00;100667.06;6123397;23;45390;-78
2023/09/19 04:41:22;;;;;;;;;2.00;2.00;;;;;20.47;100.00;100669.78;6123492;23;44998;-78
2023/09/19 04:43:49;;;;;;;;;1.75;1.75;;;;;20.47;100.00;100676.06;6123955;22;45344;-78
2023/09/19 04:46:15;;;;;;;;;3.50;3.50;;;;;20.45;100.00;100680.63;6250761;22;47606;-77
2023/09/19 04:49:34;;;;;;;;;2.00;2.00;;;;;20.92;100.00;100678.41;6119921;22;45304;-77
2023/09/19 04:51:59;;;;;;;;;1.00;1.00;;;;;20.50;100.00;100681.41;6122527;22;45434;-78
2023/09/19 04:54:24;;;;;;;;;1.00;1.00;;;;;20.53;100.00;100700.22;6124501;23;44724;-78
2023/09/19 04:56:52;;;;;;;;;3.00;1.00;;;;;20.55;100.00;100702.88;6122099;22;47051;-78
2023/09/19 04:59:18;;;;;;;;;3.00;3.00;;;;;20.50;100.00;100694.91;6120958;23;45343;-78
2023/09/19 05:02:34;;;;;;;;;3.33;2.33;;;;;20.97;100.00;100706.19;6122604;22;45820;-78
2023/09/19 05:05:00;;;;;;;;;0.50;0.50;;;;;20.51;100.00;100701.19;6123856;22;44807;-78
2023/09/19 05:07:26;;;;;;;;;1.25;1.00;;;;;20.47;100.00;100703.09;6124266;23;45781;-78
2023/09/19 05:09:51;;;;;;;;;4.00;2.33;;;;;20.39;100.00;100703.28;6120883;23;45762;-78
2023/09/19 05:12:19;;;;;;;;;2.00;2.00;;;;;20.36;100.00;100703.38;6120611;23;45269;-77
2023/09/19 05:14:45;;;;;;;;;1.00;1.00;;;;;20.42;100.00;100705.03;6121940;22;45458;-78
2023/09/19 05:17:10;;;;;;;;;1.00;1.00;;;;;20.37;100.00;100701.56;6120435;23;47284;-78
2023/09/19 05:19:38;;;;;;;;;4.00;2.00;;;;;20.37;100.00;100698.88;6122849;23;45330;-78
2023/09/19 05:22:11;;;;;;;;;4.00;2.00;;;;;20.34;100.00;100712.44;6122389;23;45485;-78
2023/09/19 05:24:36;;;;;;;;;2.00;1.50;;;;;20.28;100.00;100715.31;6119491;23;45444;-77
2023/09/19 05:27:04;;;;;;;;;1.00;1.00;;;;;20.17;100.00;100707.50;6122818;23;47933;-78
2023/09/19 05:29:29;;;;;;;;;2.00;2.00;;;;;20.16;100.00;100713.84;6121511;23;45993;-77
2023/09/19 05:31:54;;;;;;;;;2.00;1.67;;;;;20.11;100.00;100719.34;6122708;22;45350;-77
2023/09/19 05:34:25;;;;;;;;;1.33;1.33;;;;;20.43;100.00;100714.91;6124999;23;44827;-77
2023/09/19 05:36:51;;;;;;;;;1.00;1.00;;;;;20.10;100.00;100722.97;6124497;23;45334;-77
2023/09/19 05:39:17;;;;;;;;;4.67;2.00;;;;;20.10;100.00;100722.09;6122648;23;45387;-77
2023/09/19 05:41:43;;;;;;;;;3.67;3.00;;;;;20.18;100.00;100728.19;6123823;23;44821;-77
2023/09/19 05:44:09;;;;;;;;;1.00;1.00;;;;;20.24;100.00;100725.31;6125108;23;45346;-77
2023/09/19 05:46:34;;;;;;;;;2.00;2.00;;;;;20.26;100.00;100739.69;6125163;22;45604;-77
2023/09/19 05:49:00;;;;;;;;;3.67;3.67;;;;;20.26;100.00;100733.34;6124699;22;44739;-77
2023/09/19 05:51:28;;;;;;;;;4.67;4.67;;;;;20.30;100.00;100735.97;6123784;23;45655;-77
2023/09/19 05:53:55;;;;;;;;;1.00;1.00;;;;;20.31;100.00;100728.75;6123820;23;44928;-78
2023/09/19 05:56:21;;;;;;;;;2.00;2.00;;;;;20.09;100.00;100737.38;6124651;22;47241;-77
2023/09/19 05:58:46;;;;;;;;;4.00;2.00;;;;;20.06;100.00;100740.19;6123703;22;45400;-78
2023/09/19 06:01:12;;;;;;;;;2.00;1.00;;;;;20.10;100.00;100743.69;6124362;22;45540;-77
2023/09/19 06:03:38;;;;;;;;;1.00;1.00;;;;;20.32;100.00;100744.00;6126028;22;45318;-77
2023/09/19 06:06:06;;;;;;;;;2.33;1.00;;;;;20.19;100.00;100743.44;6122133;22;46978;-76
2023/09/19 06:08:32;;;;;;;;;2.33;2.00;;;;;20.19;100.00;100744.31;6119600;23;45284;-77
2023/09/19 06:10:57;;;;;;;;;0.00;0.00;;;;;20.26;100.00;100741.47;6120951;23;45399;-75
2023/09/19 06:13:25;;;;;;;;;3.00;2.00;;;;;20.31;100.00;100753.94;6124743;22;44840;-76
2023/09/19 06:15:51;;;;;;;;;1.00;1.00;;;;;20.35;100.00;100752.03;6123288;22;45294;-76
2023/09/19 06:18:19;;;;;;;;;2.00;2.00;;;;;20.42;100.00;100750.97;6124193;22;45005;-76
2023/09/19 06:20:50;;;;;;;;;3.00;1.00;;;;;20.78;100.00;100748.19;6121628;23;45303;-76
2023/09/19 06:23:17;;;;;;;;;3.00;2.00;;;;;20.43;100.00;100741.91;6122427;22;44923;-76
2023/09/19 06:25:43;;;;;;;;;4.00;2.67;;;;;20.51;100.00;100750.69;6125419;23;45279;-76
2023/09/19 06:28:12;;;;;;;;;3.67;3.67;;;;;20.54;100.00;100742.53;6124134;22;44717;-77
2023/09/19 06:30:40;;;;;;;;;0.00;0.00;;;;;20.55;100.00;100738.88;6124097;22;44755;-76
2023/09/19 06:33:06;;;;;;;;;2.00;2.00;;;;;20.61;100.00;100753.19;6124432;22;45356;-77
2023/09/19 06:35:33;;;;;;;;;1.00;1.00;;;;;20.71;100.00;100746.63;6099507;22;45488;-76
2023/09/19 06:38:02;;;;;;;;;3.25;3.25;;;;;20.98;100.00;100751.22;6125605;22;44826;-78
2023/09/19 06:40:30;;;;;;;;;3.00;1.67;;;;;20.74;100.00;100744.72;6254525;22;45295;-76
2023/09/19 06:43:02;;;;;;;;;6.00;5.00;;;;;21.13;100.00;100757.13;6123949;22;45314;-76
2023/09/19 06:45:28;;;;;;;;;3.67;3.00;;;;;20.85;100.00;100748.94;6122449;22;45383;-77
2023/09/19 06:47:57;;;;;;;;;1.00;1.00;;;;;20.90;100.00;100753.25;6124414;23;45309;-77
2023/09/19 06:50:26;;;;;;;;;3.00;3.00;;;;;20.92;100.00;100754.09;6124804;22;45685;-77
2023/09/19 06:52:59;;;;;;;;;4.00;2.50;;;;;21.17;100.00;100756.09;6131346;22;45361;-77
2023/09/19 06:55:30;;;;;;;;;2.00;2.00;;;;;21.08;100.00;100746.44;6125170;22;45661;-77
2023/09/19 06:57:57;;;;;;;;;4.67;2.00;;;;;21.20;100.00;100744.31;6128127;23;44760;-77
2023/09/19 07:00:25;;;;;;;;;1.00;1.00;;;;;21.58;100.00;100751.28;6156006;22;45272;-76
2023/09/19 07:03:03;;;;;;;;;2.25;1.00;;;;;21.77;100.00;100763.31;6153793;23;45319;-77
2023/09/19 07:05:31;;;;;;;;;3.75;2.00;;;;;21.57;100.00;100769.34;6128513;23;46734;-77
2023/09/19 07:08:00;;;;;;;;;6.33;3.00;;;;;21.87;100.00;100760.28;6155882;22;44850;-76
2023/09/19 07:10:28;;;;;;;;;2.00;2.00;;;;;21.92;100.00;100758.34;6155575;22;45282;-75
2023/09/19 07:13:10;;;;;;;;;7.00;2.67;;;;;22.16;100.00;100765.63;6103717;23;45688;-76
2023/09/19 07:15:46;;;;;;;;;4.50;2.50;;;;;22.32;100.00;100762.44;6154973;23;45151;-75
2023/09/19 07:18:25;;;;;;;;;3.75;2.00;;;;;22.38;100.00;100748.69;6131711;23;44908;-76
2023/09/19 07:20:51;;;;;;;;;4.75;3.00;;;;;22.07;100.00;100746.97;6133496;22;45269;-75
2023/09/19 07:23:23;;;;;;;;;3.00;2.00;;;;;22.42;100.00;100749.44;6160501;23;44774;-74
2023/09/19 07:25:49;;;;;;;;;1.50;1.50;;;;;22.28;100.00;100741.78;6159432;23;45308;-73
2023/09/19 07:28:18;;;;;;;;;3.75;3.75;;;;;22.33;100.00;100753.38;6157570;23;45209;-73
2023/09/19 07:30:44;;;;;;;;;3.25;3.00;;;;;22.42;100.00;100754.84;6160003;23;44755;-74
2023/09/19 07:33:13;;;;;;;;;3.25;1.00;;;;;22.47;100.00;100745.63;6237662;22;44767;-75
2023/09/19 07:35:45;;;;;;;;;1.50;1.00;;;;;22.74;100.00;100745.59;6160313;22;45650;-74
2023/09/19 07:38:11;;;;;;;;;1.50;1.25;;;;;22.61;100.00;100749.69;6163526;23;44819;-74
2023/09/19 07:40:43;;;;;;;;;5.67;5.67;;;;;22.99;100.00;100745.59;6162961;23;44736;-73
2023/09/19 07:43:09;;;;;;;;;5.67;2.33;;;;;22.61;100.00;100738.84;6134159;22;44987;-74
2023/09/19 07:45:36;;;;;;;;;1.25;1.25;;;;;22.69;100.00;100742.19;6132921;23;45128;-73
2023/09/19 07:48:04;;;;;;;;;2.75;2.00;;;;;22.77;100.00;100735.53;6158944;23;44692;-74
2023/09/19 07:50:36;;;;;;;;;2.50;1.00;;;;;22.78;100.00;100741.81;6155451;22;45524;-74
2023/09/19 07:53:04;;;;;;;;;3.25;1.75;;;;;22.76;100.00;100754.53;6130797;22;44794;-74
2023/09/19 07:55:30;;;;;;;;;2.50;2.50;;;;;22.73;100.00;100757.38;6129694;23;45428;-74
2023/09/19 07:58:43;;;;;;;;;5.00;3.75;;;;;23.20;100.00;100743.91;6155283;23;44771;-75
2023/09/19 08:01:13;;;;;;;;;3.75;3.25;;;;;22.99;100.00;100745.59;6261998;22;44727;-75
2023/09/19 08:03:45;;;;;;;;;1.00;1.00;;;;;23.13;100.00;100742.38;6260702;22;44931;-75
2023/09/19 08:06:11;;;;;;;;;2.75;2.75;;;;;22.73;100.00;100763.69;6286595;22;45184;-74
2023/09/19 08:08:37;;;;;;;;;3.50;2.00;;;;;22.67;100.00;100758.47;6288041;22;44817;-73
2023/09/19 08:11:12;;;;;;;;;2.75;2.00;;;;;22.70;100.00;100750.25;6264127;22;45280;-75
2023/09/19 08:13:43;;;;;;;;;2.50;2.00;;;;;22.69;100.00;100756.59;6264429;22;45447;-75
2023/09/19 08:16:10;;;;;;;;;4.25;1.75;;;;;22.85;100.00;100746.09;6291786;22;45165;-77
2023/09/19 08:18:39;;;;;;;;;1.00;1.00;;;;;22.70;100.00;100755.69;6282375;22;44843;-75
2023/09/19 08:21:07;;;;;;;;;4.75;3.00;;;;;22.80;100.00;100750.78;6263724;22;45395;-75
2023/09/19 08:23:34;;;;;;;;;3.00;3.00;;;;;23.00;100.00;100747.34;6289927;22;45095;-75
2023/09/19 08:26:02;;;;;;;;;2.67;2.67;;;;;22.90;100.00;100749.50;6290642;22;44976;-74
2023/09/19 08:28:35;;;;;;;;;4.33;3.33;;;;;23.27;100.00;100742.75;6260291;22;44802;-75
2023/09/19 08:31:10;;;;;;;;;4.50;2.00;;;;;23.41;100.00;100746.72;6262631;22;45381;-75
2023/09/19 08:33:42;;;;;;;;;2.00;2.00;;;;;23.54;100.00;100753.44;6266899;22;44850;-75
2023/09/19 08:36:09;;;;;;;;;6.25;5.00;;;;;23.21;100.00;100751.13;6295510;22;45139;-74
2023/09/19 08:38:35;;;;;;;;;4.00;1.25;;;;;23.42;100.00;100759.38;6289142;22;45121;-75
2023/09/19 08:41:07;;;;;;;;;4.75;3.25;;;;;23.72;100.00;100758.16;6262626;22;45345;-74
2023/09/19 08:43:33;;;;;;;;;3.75;3.75;;;;;23.54;100.00;100756.16;6261158;22;44845;-74
2023/09/19 08:46:08;;;;;;;;;2.75;2.25;;;;;23.95;100.00;100759.06;6235471;22;48065;-75
2023/09/19 08:48:44;;;;;;;;;1.25;1.25;;;;;23.64;100.00;100752.13;6261010;22;45204;-77
2023/09/19 08:51:25;;;;;;;;;2.00;2.00;;;;;23.97;100.00;100749.03;6288067;22;45282;-74
2023/09/19 08:54:19;;;;;;;;;2.00;2.00;;;;;24.12;100.00;100753.81;6289376;22;44847;-74
2023/09/19 08:56:50;;;;;;;;;2.00;1.00;;;;;23.88;100.00;100752.13;6261882;22;47298;-75
2023/09/19 08:59:17;;;;;;;;;3.50;3.25;;;;;23.71;100.00;100750.06;6256871;22;44836;-75
2023/09/19 09:01:43;;;;;;;;;2.25;1.75;;;;;23.84;100.00;100750.50;6160526;22;44736;-75
2023/09/19 09:04:17;;;;;;;;;2.00;2.00;;;;;23.98;100.00;100760.78;6161619;22;44728;-74
2023/09/19 09:06:55;;;;;;;;;2.00;2.00;;;;;24.30;100.00;100759.44;6134834;23;46930;-78
2023/09/19 09:09:21;;;;;;;;;3.00;1.75;;;;;24.06;100.00;100756.81;6161381;23;45136;-78
2023/09/19 09:11:56;;;;;;;;;4.50;4.50;;;;;24.42;100.00;100756.19;6131814;22;45336;-77
2023/09/19 09:14:24;;;;;;;;;1.50;1.00;;;;;24.31;100.00;100761.19;6135061;23;45002;-77
2023/09/19 09:16:51;;;;;;;;;2.25;2.00;;;;;24.51;100.00;100750.38;6131993;22;46699;-76
2023/09/19 09:19:24;;;;;;;;;3.00;2.25;;;;;24.41;100.00;100768.00;6133324;23;44838;-76
2023/09/19 09:21:52;;;;;;;;;2.75;2.75;;;;;24.49;100.00;100760.38;6157845;23;45276;-77
2023/09/19 09:24:37;;;;;;;;;2.00;2.00;;;;;24.81;100.00;100749.97;6154013;22;45430;-77
2023/09/19 09:27:13;;;;;;;;;3.25;3.25;;;;;24.77;100.00;100748.34;6155321;22;45384;-78
2023/09/19 09:29:52;;;;;;;;;1.75;1.75;;;;;24.92;100.00;100752.19;6155899;22;44750;-76
2023/09/19 09:32:27;;;;;;;;;0.50;0.50;;;;;24.87;100.00;100755.13;6130486;22;45336;-80
2023/09/19 09:34:58;;;;;;;;;1.25;1.25;;;;;25.12;100.00;100743.09;6156997;23;45272;-77
2023/09/19 09:37:31;;;;;;;;;2.25;1.00;;;;;24.84;100.00;100744.38;6129417;22;45238;-78
2023/09/19 09:40:18;;;;;;;;;4.00;1.00;;;;;25.15;100.00;100748.44;6157209;23;45251;-77
2023/09/19 09:42:46;;;;;;;;;2.00;2.00;;;;;25.02;100.00;100758.09;6156386;23;45478;-79
2023/09/19 09:45:56;;;;;;;;;4.00;1.25;;;;;25.46;100.00;100749.72;6104803;23;45357;-76
2023/09/19 09:48:31;;;;;;;;;1.25;1.25;;;;;25.21;100.00;100752.66;6151018;22;45280;-76
2023/09/19 09:51:03;;;;;;;;;1.00;1.00;;;;;25.55;100.00;100742.00;6160094;22;44889;-77
2023/09/19 09:53:32;;;;;;;;;1.50;1.00;;;;;25.50;100.00;100743.19;6135275;22;44717;-77
2023/09/19 09:56:05;;;;;;;;;3.00;2.75;;;;;25.24;91.55;100742.56;6134007;23;45328;-76
2023/09/19 09:58:59;;;;;;;;;3.75;2.25;;;;;25.35;98.49;100723.03;6136046;23;46750;-75
2023/09/19 10:01:48;;;;;;;;;2.75;2.75;;;;;25.48;100.00;100734.19;6160434;23;44811;-74
2023/09/19 10:07:42;;;;;;;;;;;;;;;;;;;;;
2023/09/19 10:10:22;;;;;;;;;1.75;1.75;;;;;25.63;100.00;100733.47;6139318;23;75261;-75
2023/09/19 10:12:52;;;;;;;;;2.25;2.00;;;;;25.62;100.00;100731.69;6136236;23;45425;-76
2023/09/19 10:15:24;;;;;;;;;1.00;1.00;;;;;25.54;100.00;100728.44;6162022;23;45145;-75
2023/09/19 10:17:58;;;;;;;;;1.00;1.00;;;;;25.93;97.67;100725.66;6163370;23;45262;-74
2023/09/19 10:20:37;;;;;;;;;2.50;2.50;;;;;25.90;100.00;100720.34;6161638;23;45222;-76
2023/09/19 10:23:14;;;;;;;;;0.00;0.00;;;;;26.30;100.00;100718.31;6134374;23;44749;-76
2023/09/19 10:25:45;;;;;;;;;4.00;1.75;;;;;26.33;89.18;100712.69;6161596;22;44724;-76
2023/09/19 10:28:13;;;;;;;;;1.50;1.50;;;;;26.37;99.45;100707.94;6134280;23;44789;-76
2023/09/19 10:30:44;;;;;;;;;1.00;0.00;;;;;26.53;85.24;100713.50;6134013;23;48023;-74
2023/09/19 10:33:15;;;;;;;;;2.00;2.00;;;;;26.21;100.00;100720.63;6158363;22;45307;-77
2023/09/19 10:35:48;;;;;;;;;2.00;2.00;;;;;26.46;100.00;100712.94;6134067;23;44836;-74
2023/09/19 10:38:18;;;;;;;;;2.50;2.50;;;;;26.29;96.29;100715.66;6109897;22;45245;-75
2023/09/19 10:40:52;;;;;;;;;2.25;1.00;;;;;26.51;100.00;100716.28;6158832;23;46661;-74
2023/09/19 10:43:23;;;;;;;;;1.00;1.00;;;;;26.18;100.00;100708.03;6159749;23;44927;-75
2023/09/19 10:45:52;;;;;;;;;2.25;2.00;;;;;26.15;100.00;100709.06;6163690;23;44699;-75
2023/09/19 10:48:19;;;;;;;;;1.50;1.00;;;;;26.05;100.00;100713.22;6244464;22;44838;-74
2023/09/19 10:50:59;;;;;;;;;2.25;2.25;;;;;26.08;100.00;100710.34;6156385;23;45005;-74
2023/09/19 10:53:27;;;;;;;;;1.50;1.50;;;;;26.28;100.00;100705.72;6156934;23;45048;-74
2023/09/19 10:56:36;;;;;;;;;0.00;0.00;;;;;26.53;81.25;100711.63;6159182;23;45187;-75
2023/09/19 10:59:06;;;;;;;;;2.00;2.00;;;;;26.45;98.16;100711.16;6159162;23;44782;-75
2023/09/19 11:02:00;;;;;;;;;2.00;2.00;;;;;26.70;100.00;100709.88;6132689;22;46588;-74
2023/09/19 11:04:36;;;;;;;;;1.00;1.00;;;;;26.86;100.00;100705.34;6154466;22;44827;-74
2023/09/19 11:07:11;;;;;;;;;3.50;3.50;;;;;27.04;100.00;100708.91;6135385;22;44738;-76
2023/09/19 11:09:48;;;;;;;;;3.00;1.50;;;;;27.22;100.00;100700.69;6141759;22;44911;-76
2023/09/19 11:12:40;;;;;;;;;2.00;2.00;;;;;27.41;100.00;100708.75;6164255;23;45461;-75
2023/09/19 11:15:08;;;;;;;;;1.75;1.00;;;;;27.40;100.00;100705.13;6119339;23;44848;-74
2023/09/19 11:17:40;;;;;;;;;3.75;3.00;;;;;27.74;94.68;100700.47;6137391;23;44772;-74
2023/09/19 11:22:58;;;;;;;;;2.00;2.00;;;;;27.86;100.00;100702.47;6159714;23;44869;-74
2023/09/19 11:25:38;;;;;;;;;2.00;2.00;;;;;27.97;87.15;100693.66;6156343;23;44705;-74
2023/09/19 11:28:08;;;;;;;;;0.75;0.75;;;;;27.80;82.29;100691.91;6132239;23;44813;-75
2023/09/19 11:30:49;;;;;;;;;2.00;0.50;;;;;27.89;100.00;100694.13;6133075;23;44884;-73
2023/09/19 11:33:28;;;;;;;;;3.00;1.00;;;;;28.01;100.00;100697.97;6161380;22;47202;-75
2023/09/19 11:36:25;;;;;;;;;1.75;1.00;;;;;28.40;96.04;100685.63;6132123;22;44683;-75
2023/09/19 11:38:50;;;;;;;;;3.00;1.75;;;;;28.23;90.34;100691.22;6158566;22;44779;-74
2023/09/19 11:41:34;;;;;;;;;1.00;1.00;;;;;28.68;88.27;100692.13;6133681;23;44844;-75
2023/09/19 11:44:06;;;;;;;;;2.25;1.00;;;;;28.33;94.56;100706.09;6132836;23;47217;-74
2023/09/19 11:46:34;;;;;;;;;1.00;1.00;;;;;28.49;84.85;100690.50;6132218;23;44850;-74
2023/09/19 11:49:15;;;;;;;;;1.00;1.00;;;;;28.76;100.00;100684.31;6135611;22;44768;-74